createdAt,value
2023-04-25T00:01:02.523Z,0.04
2023-04-25T00:05:36.925Z,0.04
2023-04-25T00:10:35.830Z,0.04
2023-04-25T00:15:35.749Z,0.04
2023-04-25T00:20:35.471Z,0.04
2023-04-25T00:25:35.162Z,0.04
2023-04-25T00:30:45.200Z,0.04
2023-04-25T00:35:45.184Z,0.04
2023-04-25T00:40:46.128Z,0.04
2023-04-25T00:45:44.013Z,0.04
2023-04-25T00:50:43.558Z,0.04
2023-04-25T00:55:44.194Z,0.04
2023-04-25T00:59:53.413Z,0.04
2023-04-25T01:04:54.360Z,0.04
2023-04-25T01:09:54.510Z,0.04
2023-04-25T01:19:52.069Z,0.04
2023-04-25T01:24:51.653Z,0.04
2023-04-25T01:29:51.486Z,0.03
2023-04-25T01:34:50.904Z,0.04
2023-04-25T01:44:47.607Z,0.04
2023-04-25T01:49:46.620Z,0.04
2023-04-25T01:54:46.373Z,0.04
2023-04-25T01:59:43.433Z,0.04
2023-04-25T02:04:44.572Z,0.04
2023-04-25T02:09:43.598Z,0.04
2023-04-25T02:14:43.822Z,0.04
2023-04-25T02:19:41.066Z,0.04
2023-04-25T02:24:41.734Z,0.04
2023-04-25T02:29:40.796Z,0.04
2023-04-25T02:34:40.888Z,0.04
2023-04-25T02:39:41.360Z,0.04
2023-04-25T02:44:41.932Z,0.04
2023-04-25T02:54:28.719Z,0.04
2023-04-25T03:04:29.396Z,0.04
2023-04-25T03:09:26.448Z,0.04
2023-04-25T03:14:25.867Z,0.04
2023-04-25T03:19:25.596Z,0.04
2023-04-25T03:24:25.555Z,0.04
2023-04-25T03:29:23.556Z,0.04
2023-04-25T03:34:23.605Z,0.04
2023-04-25T03:39:28.301Z,0.04
2023-04-25T03:44:23.322Z,0.04
2023-04-25T03:49:20.796Z,0.04
2023-04-25T03:54:20.564Z,0.05
2023-04-25T05:00:57.992Z,0.72
2023-04-25T05:05:42.795Z,0.9
2023-04-25T05:10:42.979Z,1.14
2023-04-25T05:15:43.368Z,0.94
2023-04-25T05:20:43.538Z,0.93
2023-04-25T05:25:40.994Z,1.12
2023-04-25T05:30:40.937Z,1.47
2023-04-25T05:35:40.297Z,1.73
2023-04-25T05:40:39.393Z,2.33
2023-04-25T05:45:39.227Z,2.9
2023-04-25T05:50:29.344Z,2.17
2023-04-25T05:55:26.200Z,1.9
2023-04-25T06:59:39.370Z,4.66
2023-04-25T07:04:29.903Z,5.4
2023-04-25T07:09:28.272Z,5.62
2023-04-25T07:14:26.201Z,4.12
2023-04-25T07:19:26.128Z,4.93
2023-04-25T07:24:25.604Z,3.55
2023-04-25T07:29:25.523Z,3.87
2023-04-25T07:34:24.366Z,4.22
2023-04-25T07:39:24.295Z,4
2023-04-25T07:44:23.201Z,4.42
2023-04-25T07:49:23.296Z,4.35
2023-04-25T07:54:23.689Z,4.48
2023-04-25T07:59:20.138Z,4.87
2023-04-25T08:05:14.581Z,5.87
2023-04-25T08:09:21.208Z,5.85
2023-04-25T08:14:20.180Z,6.19
2023-04-25T08:19:20.712Z,5.67
2023-04-25T08:24:19.904Z,5.95
2023-04-25T08:29:21.356Z,6.31
2023-04-25T08:34:17.271Z,6.39
2023-04-25T08:39:18.203Z,6.28
2023-04-25T08:44:17.058Z,6.62
2023-04-25T08:49:19.021Z,7.19
2023-04-25T08:54:45.136Z,7.53
2023-04-25T09:01:04.781Z,6.58
2023-04-25T09:05:39.729Z,5.28
2023-04-25T09:10:45.593Z,4.89
2023-04-25T09:15:44.808Z,5.15
2023-04-25T09:25:43.334Z,5.56
2023-04-25T09:30:43.043Z,4.01
2023-04-25T09:35:43.129Z,1.4
2023-04-25T09:40:41.752Z,1.82
2023-04-25T09:45:42.366Z,2.69
2023-04-25T09:50:41.381Z,3.22
2023-04-25T09:55:43.534Z,2.74
2023-04-25T10:24:43.700Z,11.72
2023-04-25T10:29:44.655Z,12.24
2023-04-25T10:44:43.080Z,8.14
2023-04-25T12:04:23.692Z,6.7
2023-04-25T12:09:20.353Z,5.54
2023-04-25T12:14:19.002Z,5.55
2023-04-25T12:19:18.779Z,9.81
2023-04-25T12:24:20.145Z,14.01
2023-04-25T12:29:16.571Z,17.03
2023-04-25T12:34:16.571Z,18.69
2023-04-25T12:39:16.369Z,18.19
2023-04-25T12:44:16.366Z,15.61
2023-04-25T12:49:28.284Z,12.56
2023-04-25T12:54:16.104Z,10.19
2023-04-25T12:59:14.892Z,11.24
2023-04-25T13:01:00.878Z,12.18
2023-04-25T13:05:35.517Z,13.15
2023-04-25T13:10:46.016Z,14.58
2023-04-25T13:15:45.344Z,13.29
2023-04-25T13:20:47.070Z,13.51
2023-04-25T13:25:45.451Z,12.31
2023-04-25T13:30:43.738Z,11.34
2023-04-25T13:35:46.094Z,16.75
2023-04-25T13:40:42.653Z,17.26
2023-04-25T13:45:44.260Z,18.19
2023-04-25T13:50:43.909Z,15.36
2023-04-25T13:55:40.203Z,15.42
2023-04-25T13:59:55.450Z,17.96
2023-04-25T14:04:54.902Z,15.43
2023-04-25T14:14:52.804Z,10.93
2023-04-25T14:19:54.435Z,14.2
2023-04-25T14:24:51.165Z,12.56
2023-04-25T14:29:50.857Z,10.32
2023-04-25T14:34:48.198Z,8.65
2023-04-25T14:39:48.059Z,9.41
2023-04-25T14:44:47.087Z,8.78
2023-04-25T14:54:46.445Z,9.05
2023-04-25T15:09:44.391Z,8.28
2023-04-25T15:24:42.613Z,5.13
2023-04-25T16:04:25.311Z,2.23
2023-04-25T16:09:21.813Z,1.67
2023-04-25T16:14:21.526Z,1.25
2023-04-25T16:19:20.181Z,0.85
2023-04-25T16:24:19.455Z,1.41
2023-04-25T16:29:18.190Z,1.77
2023-04-25T16:34:17.635Z,2.2
2023-04-25T16:39:16.797Z,1.27
2023-04-25T16:44:15.914Z,1.36
2023-04-25T16:49:17.247Z,1.71
2023-04-25T16:54:13.833Z,1.73
2023-04-25T17:01:00.601Z,1.88
2023-04-25T17:05:44.369Z,1.9
2023-04-25T17:10:43.771Z,1.86
2023-04-25T17:15:43.807Z,1.57
2023-04-25T17:20:43.038Z,1.3
2023-04-25T17:25:43.076Z,1.51
2023-04-25T17:30:43.350Z,1.35
2023-04-25T17:35:44.715Z,1.27
2023-04-25T17:40:41.757Z,1.04
2023-04-25T17:45:41.485Z,1
2023-04-25T17:50:42.548Z,0.73
2023-04-25T17:55:28.630Z,0.53
2023-04-25T18:44:46.010Z,0.06
2023-04-25T18:54:44.221Z,0.05
2023-04-25T18:59:43.683Z,0.04
2023-04-25T19:04:46.383Z,0.04
2023-04-25T19:19:42.182Z,0.04
2023-04-25T19:24:40.658Z,0.04
2023-04-25T19:29:41.132Z,0.04
2023-04-25T19:34:41.398Z,0.04
2023-04-25T20:04:25.054Z,0.04
2023-04-25T20:09:23.979Z,0.04
2023-04-25T20:14:24.200Z,0.04
2023-04-25T20:19:23.014Z,0.04
2023-04-25T20:24:22.483Z,0.04
2023-04-25T20:29:22.323Z,0.04
2023-04-25T20:34:22.336Z,0.04
2023-04-25T20:39:19.208Z,0.04
2023-04-25T20:44:19.122Z,0.04
2023-04-25T20:49:18.702Z,0.04
2023-04-25T20:54:19.484Z,0.04
2023-04-25T21:01:06.227Z,0.04
2023-04-25T21:05:38.638Z,0.04
2023-04-25T21:10:38.138Z,0.04
2023-04-25T21:15:39.239Z,0.04
2023-04-25T21:20:46.223Z,0.04
2023-04-25T21:25:45.596Z,0.04
2023-04-25T21:30:46.184Z,0.04
2023-04-25T21:35:44.025Z,0.04
2023-04-25T21:40:44.361Z,0.04
2023-04-25T21:46:06.286Z,0.04
2023-04-25T21:50:42.939Z,0.03
2023-04-25T21:55:42.654Z,0.04
2023-04-25T21:59:55.228Z,0.04
2023-04-25T22:09:55.713Z,0.04
2023-04-25T22:14:54.494Z,0.04
2023-04-25T22:19:53.848Z,0.04
2023-04-25T22:34:51.885Z,0.04
2023-04-25T22:39:51.428Z,0.04
2023-04-25T22:44:54.439Z,0.04
2023-04-25T22:49:48.227Z,0.04
2023-04-25T22:54:48.264Z,0.04
